sensor_id;sensor_type;location;lat;lon;timestamp;P1;P2;P0
62846;PMS5003;49477;35.676;139.586;2023-06-26T00:02:22;40;36;
62846;PMS5003;49477;35.676;139.586;2023-06-26T00:04:51;34;34;
62846;PMS5003;49477;35.676;139.586;2023-06-26T00:07:21;40;34;
62846;PMS5003;49477;35.676;139.586;2023-06-26T00:09:50;45;44;
62846;PMS5003;49477;35.676;139.586;2023-06-26T00:12:19;50;49;
62846;PMS5003;49477;35.676;139.586;2023-06-26T00:14:48;47;41;
62846;PMS5003;49477;35.676;139.586;2023-06-26T00:17:17;43;40;
62846;PMS5003;49477;35.676;139.586;2023-06-26T00:19:46;48;43;
62846;PMS5003;49477;35.676;139.586;2023-06-26T00:22:17;39;37;
62846;PMS5003;49477;35.676;139.586;2023-06-26T00:24:47;44;41;
62846;PMS5003;49477;35.676;139.586;2023-06-26T00:27:16;47;42;
62846;PMS5003;49477;35.676;139.586;2023-06-26T00:29:46;40;40;
62846;PMS5003;49477;35.676;139.586;2023-06-26T00:32:15;45;42;
62846;PMS5003;49477;35.676;139.586;2023-06-26T00:34:45;55;49;
62846;PMS5003;49477;35.676;139.586;2023-06-26T00:37:14;42;39;
62846;PMS5003;49477;35.676;139.586;2023-06-26T00:39:44;51;45;
62846;PMS5003;49477;35.676;139.586;2023-06-26T00:42:13;44;42;
62846;PMS5003;49477;35.676;139.586;2023-06-26T00:44:42;45;41;
62846;PMS5003;49477;35.676;139.586;2023-06-26T00:47:13;52;44;
62846;PMS5003;49477;35.676;139.586;2023-06-26T00:49:44;40;39;
62846;PMS5003;49477;35.676;139.586;2023-06-26T00:52:13;46;42;
62846;PMS5003;49477;35.676;139.586;2023-06-26T00:54:42;46;38;
62846;PMS5003;49477;35.676;139.586;2023-06-26T00:57:11;43;39;
62846;PMS5003;49477;35.676;139.586;2023-06-26T00:59:40;37;37;
62846;PMS5003;49477;35.676;139.586;2023-06-26T01:02:10;38;35;
62846;PMS5003;49477;35.676;139.586;2023-06-26T01:04:39;45;41;
62846;PMS5003;49477;35.676;139.586;2023-06-26T01:07:08;51;45;
62846;PMS5003;49477;35.676;139.586;2023-06-26T01:09:37;42;37;
62846;PMS5003;49477;35.676;139.586;2023-06-26T01:12:07;37;36;
62846;PMS5003;49477;35.676;139.586;2023-06-26T01:14:37;48;44;
62846;PMS5003;49477;35.676;139.586;2023-06-26T01:17:06;45;40;
62846;PMS5003;49477;35.676;139.586;2023-06-26T01:19:37;47;41;
62846;PMS5003;49477;35.676;139.586;2023-06-26T01:22:11;33;32;
62846;PMS5003;49477;35.676;139.586;2023-06-26T01:24:51;41;41;
62846;PMS5003;49477;35.676;139.586;2023-06-26T01:27:43;42;38;
62846;PMS5003;49477;35.676;139.586;2023-06-26T01:30:14;39;35;
62846;PMS5003;49477;35.676;139.586;2023-06-26T01:32:45;45;40;
62846;PMS5003;49477;35.676;139.586;2023-06-26T01:35:15;44;37;
62846;PMS5003;49477;35.676;139.586;2023-06-26T01:37:45;34;34;
62846;PMS5003;49477;35.676;139.586;2023-06-26T01:40:14;38;35;
62846;PMS5003;49477;35.676;139.586;2023-06-26T01:42:43;40;36;
62846;PMS5003;49477;35.676;139.586;2023-06-26T01:45:14;36;34;
62846;PMS5003;49477;35.676;139.586;2023-06-26T01:47:51;39;39;
62846;PMS5003;49477;35.676;139.586;2023-06-26T01:50:25;42;40;
62846;PMS5003;49477;35.676;139.586;2023-06-26T01:52:58;39;38;
62846;PMS5003;49477;35.676;139.586;2023-06-26T01:55:35;45;43;
62846;PMS5003;49477;35.676;139.586;2023-06-26T01:58:10;37;35;
62846;PMS5003;49477;35.676;139.586;2023-06-26T02:00:40;37;36;
62846;PMS5003;49477;35.676;139.586;2023-06-26T02:03:10;41;38;
62846;PMS5003;49477;35.676;139.586;2023-06-26T02:05:39;41;38;
62846;PMS5003;49477;35.676;139.586;2023-06-26T02:08:09;33;33;
62846;PMS5003;49477;35.676;139.586;2023-06-26T02:10:42;42;39;
62846;PMS5003;49477;35.676;139.586;2023-06-26T02:13:11;41;36;
62846;PMS5003;49477;35.676;139.586;2023-06-26T02:15:40;34;32;
62846;PMS5003;49477;35.676;139.586;2023-06-26T02:18:08;36;34;
62846;PMS5003;49477;35.676;139.586;2023-06-26T02:20:38;38;36;
62846;PMS5003;49477;35.676;139.586;2023-06-26T02:23:07;41;38;
62846;PMS5003;49477;35.676;139.586;2023-06-26T02:25:37;41;40;
62846;PMS5003;49477;35.676;139.586;2023-06-26T02:28:06;39;39;
62846;PMS5003;49477;35.676;139.586;2023-06-26T02:30:36;44;36;
62846;PMS5003;49477;35.676;139.586;2023-06-26T02:33:05;36;35;
62846;PMS5003;49477;35.676;139.586;2023-06-26T02:35:35;34;34;
62846;PMS5003;49477;35.676;139.586;2023-06-26T02:38:04;36;35;
62846;PMS5003;49477;35.676;139.586;2023-06-26T02:40:33;35;35;
62846;PMS5003;49477;35.676;139.586;2023-06-26T02:43:02;39;36;
62846;PMS5003;49477;35.676;139.586;2023-06-26T02:45:31;42;40;
62846;PMS5003;49477;35.676;139.586;2023-06-26T02:48:00;40;37;
62846;PMS5003;49477;35.676;139.586;2023-06-26T02:50:29;41;37;
62846;PMS5003;49477;35.676;139.586;2023-06-26T02:52:58;40;38;
62846;PMS5003;49477;35.676;139.586;2023-06-26T02:55:27;43;40;
62846;PMS5003;49477;35.676;139.586;2023-06-26T02:57:57;40;40;
62846;PMS5003;49477;35.676;139.586;2023-06-26T03:00:26;45;39;
62846;PMS5003;49477;35.676;139.586;2023-06-26T03:02:55;40;40;
62846;PMS5003;49477;35.676;139.586;2023-06-26T03:05:25;38;38;
62846;PMS5003;49477;35.676;139.586;2023-06-26T03:07:54;42;40;
62846;PMS5003;49477;35.676;139.586;2023-06-26T03:10:23;42;39;
62846;PMS5003;49477;35.676;139.586;2023-06-26T03:12:53;44;44;
62846;PMS5003;49477;35.676;139.586;2023-06-26T03:15:22;39;38;
62846;PMS5003;49477;35.676;139.586;2023-06-26T03:17:51;42;41;
62846;PMS5003;49477;35.676;139.586;2023-06-26T03:20:20;43;40;
62846;PMS5003;49477;35.676;139.586;2023-06-26T03:22:50;44;40;
62846;PMS5003;49477;35.676;139.586;2023-06-26T03:25:19;31;29;
62846;PMS5003;49477;35.676;139.586;2023-06-26T03:27:48;38;37;
62846;PMS5003;49477;35.676;139.586;2023-06-26T03:30:18;35;34;
62846;PMS5003;49477;35.676;139.586;2023-06-26T03:32:47;42;41;
62846;PMS5003;49477;35.676;139.586;2023-06-26T03:35:16;38;35;
62846;PMS5003;49477;35.676;139.586;2023-06-26T03:37:46;36;36;
62846;PMS5003;49477;35.676;139.586;2023-06-26T03:40:15;44;43;
62846;PMS5003;49477;35.676;139.586;2023-06-26T03:42:45;44;39;
62846;PMS5003;49477;35.676;139.586;2023-06-26T03:45:15;39;36;
62846;PMS5003;49477;35.676;139.586;2023-06-26T03:47:44;39;35;
62846;PMS5003;49477;35.676;139.586;2023-06-26T03:50:13;40;37;
62846;PMS5003;49477;35.676;139.586;2023-06-26T03:52:43;36;33;
62846;PMS5003;49477;35.676;139.586;2023-06-26T03:55:13;37;35;
62846;PMS5003;49477;35.676;139.586;2023-06-26T03:57:42;35;33;
62846;PMS5003;49477;35.676;139.586;2023-06-26T04:00:12;34;34;
62846;PMS5003;49477;35.676;139.586;2023-06-26T04:02:42;35;32;
62846;PMS5003;49477;35.676;139.586;2023-06-26T04:05:12;34;34;
62846;PMS5003;49477;35.676;139.586;2023-06-26T04:07:41;41;40;
62846;PMS5003;49477;35.676;139.586;2023-06-26T04:10:10;36;33;
62846;PMS5003;49477;35.676;139.586;2023-06-26T04:12:39;31;30;
62846;PMS5003;49477;35.676;139.586;2023-06-26T04:15:09;35;35;
62846;PMS5003;49477;35.676;139.586;2023-06-26T04:17:38;35;33;
62846;PMS5003;49477;35.676;139.586;2023-06-26T04:20:08;40;37;
62846;PMS5003;49477;35.676;139.586;2023-06-26T04:22:38;40;40;
62846;PMS5003;49477;35.676;139.586;2023-06-26T04:25:07;39;38;
62846;PMS5003;49477;35.676;139.586;2023-06-26T04:27:37;39;33;
62846;PMS5003;49477;35.676;139.586;2023-06-26T04:30:07;34;31;
62846;PMS5003;49477;35.676;139.586;2023-06-26T04:32:37;34;33;
62846;PMS5003;49477;35.676;139.586;2023-06-26T04:35:06;32;30;
62846;PMS5003;49477;35.676;139.586;2023-06-26T04:37:36;35;35;
62846;PMS5003;49477;35.676;139.586;2023-06-26T04:40:05;35;33;
62846;PMS5003;49477;35.676;139.586;2023-06-26T04:42:36;37;32;
62846;PMS5003;49477;35.676;139.586;2023-06-26T04:45:06;38;35;
62846;PMS5003;49477;35.676;139.586;2023-06-26T04:47:35;36;36;
62846;PMS5003;49477;35.676;139.586;2023-06-26T04:50:05;34;32;
62846;PMS5003;49477;35.676;139.586;2023-06-26T04:52:35;32;29;
62846;PMS5003;49477;35.676;139.586;2023-06-26T04:55:04;33;33;
62846;PMS5003;49477;35.676;139.586;2023-06-26T04:57:33;35;31;
62846;PMS5003;49477;35.676;139.586;2023-06-26T05:00:03;33;32;
62846;PMS5003;49477;35.676;139.586;2023-06-26T05:02:33;39;34;
62846;PMS5003;49477;35.676;139.586;2023-06-26T05:05:02;38;38;
62846;PMS5003;49477;35.676;139.586;2023-06-26T05:07:31;36;33;
62846;PMS5003;49477;35.676;139.586;2023-06-26T05:10:00;34;32;
62846;PMS5003;49477;35.676;139.586;2023-06-26T05:12:30;40;37;
62846;PMS5003;49477;35.676;139.586;2023-06-26T05:14:59;27;27;
62846;PMS5003;49477;35.676;139.586;2023-06-26T05:17:29;34;31;
62846;PMS5003;49477;35.676;139.586;2023-06-26T05:19:58;34;32;
62846;PMS5003;49477;35.676;139.586;2023-06-26T05:22:27;35;33;
62846;PMS5003;49477;35.676;139.586;2023-06-26T05:24:57;33;33;
62846;PMS5003;49477;35.676;139.586;2023-06-26T05:27:28;37;35;
62846;PMS5003;49477;35.676;139.586;2023-06-26T05:29:58;35;31;
62846;PMS5003;49477;35.676;139.586;2023-06-26T05:32:28;33;29;
62846;PMS5003;49477;35.676;139.586;2023-06-26T05:35:02;32;31;
62846;PMS5003;49477;35.676;139.586;2023-06-26T05:37:33;32;30;
62846;PMS5003;49477;35.676;139.586;2023-06-26T05:40:02;27;27;
62846;PMS5003;49477;35.676;139.586;2023-06-26T05:42:32;31;27;
62846;PMS5003;49477;35.676;139.586;2023-06-26T05:45:02;29;28;
62846;PMS5003;49477;35.676;139.586;2023-06-26T05:47:31;25;25;
62846;PMS5003;49477;35.676;139.586;2023-06-26T05:50:00;31;26;
62846;PMS5003;49477;35.676;139.586;2023-06-26T05:52:31;31;29;
62846;PMS5003;49477;35.676;139.586;2023-06-26T05:55:01;26;25;
62846;PMS5003;49477;35.676;139.586;2023-06-26T05:57:30;24;23;
62846;PMS5003;49477;35.676;139.586;2023-06-26T06:00:01;28;26;
62846;PMS5003;49477;35.676;139.586;2023-06-26T06:02:31;27;25;
62846;PMS5003;49477;35.676;139.586;2023-06-26T06:05:00;28;27;
62846;PMS5003;49477;35.676;139.586;2023-06-26T06:07:30;26;24;
62846;PMS5003;49477;35.676;139.586;2023-06-26T06:10:01;28;26;
62846;PMS5003;49477;35.676;139.586;2023-06-26T06:12:30;24;22;
62846;PMS5003;49477;35.676;139.586;2023-06-26T06:14:59;25;25;
62846;PMS5003;49477;35.676;139.586;2023-06-26T06:17:29;24;22;
62846;PMS5003;49477;35.676;139.586;2023-06-26T06:19:58;20;20;
62846;PMS5003;49477;35.676;139.586;2023-06-26T06:22:29;19;19;
62846;PMS5003;49477;35.676;139.586;2023-06-26T06:24:58;21;20;
62846;PMS5003;49477;35.676;139.586;2023-06-26T06:27:27;19;19;
62846;PMS5003;49477;35.676;139.586;2023-06-26T06:29:57;21;20;
62846;PMS5003;49477;35.676;139.586;2023-06-26T06:32:26;23;21;
62846;PMS5003;49477;35.676;139.586;2023-06-26T06:34:55;20;20;
62846;PMS5003;49477;35.676;139.586;2023-06-26T06:37:24;18;18;
62846;PMS5003;49477;35.676;139.586;2023-06-26T06:39:53;22;22;
62846;PMS5003;49477;35.676;139.586;2023-06-26T06:42:22;20;20;
62846;PMS5003;49477;35.676;139.586;2023-06-26T06:44:51;26;23;
62846;PMS5003;49477;35.676;139.586;2023-06-26T06:47:20;19;19;
62846;PMS5003;49477;35.676;139.586;2023-06-26T06:49:50;22;21;
62846;PMS5003;49477;35.676;139.586;2023-06-26T06:52:19;21;18;
62846;PMS5003;49477;35.676;139.586;2023-06-26T06:54:52;18;18;
62846;PMS5003;49477;35.676;139.586;2023-06-26T06:57:22;21;20;
62846;PMS5003;49477;35.676;139.586;2023-06-26T06:59:51;21;21;
62846;PMS5003;49477;35.676;139.586;2023-06-26T07:02:20;22;20;
62846;PMS5003;49477;35.676;139.586;2023-06-26T07:04:49;18;18;
62846;PMS5003;49477;35.676;139.586;2023-06-26T07:07:19;18;18;
62846;PMS5003;49477;35.676;139.586;2023-06-26T07:09:48;23;21;
62846;PMS5003;49477;35.676;139.586;2023-06-26T07:12:17;17;16;
62846;PMS5003;49477;35.676;139.586;2023-06-26T07:14:47;17;16;
62846;PMS5003;49477;35.676;139.586;2023-06-26T07:17:16;20;20;
62846;PMS5003;49477;35.676;139.586;2023-06-26T07:19:46;20;20;
62846;PMS5003;49477;35.676;139.586;2023-06-26T07:22:15;22;19;
62846;PMS5003;49477;35.676;139.586;2023-06-26T07:24:45;19;18;
62846;PMS5003;49477;35.676;139.586;2023-06-26T07:27:15;16;15;
62846;PMS5003;49477;35.676;139.586;2023-06-26T07:29:44;16;16;
62846;PMS5003;49477;35.676;139.586;2023-06-26T07:32:14;21;20;
62846;PMS5003;49477;35.676;139.586;2023-06-26T07:34:43;19;18;
62846;PMS5003;49477;35.676;139.586;2023-06-26T07:37:13;19;17;
62846;PMS5003;49477;35.676;139.586;2023-06-26T07:39:42;14;14;
62846;PMS5003;49477;35.676;139.586;2023-06-26T07:42:12;17;14;
62846;PMS5003;49477;35.676;139.586;2023-06-26T07:44:41;19;19;
62846;PMS5003;49477;35.676;139.586;2023-06-26T07:47:11;18;16;
62846;PMS5003;49477;35.676;139.586;2023-06-26T07:49:40;17;17;
62846;PMS5003;49477;35.676;139.586;2023-06-26T07:52:10;19;15;
62846;PMS5003;49477;35.676;139.586;2023-06-26T07:54:40;16;16;
62846;PMS5003;49477;35.676;139.586;2023-06-26T07:57:09;14;14;
62846;PMS5003;49477;35.676;139.586;2023-06-26T07:59:39;19;17;
62846;PMS5003;49477;35.676;139.586;2023-06-26T08:02:08;13;13;
62846;PMS5003;49477;35.676;139.586;2023-06-26T08:04:38;21;19;
62846;PMS5003;49477;35.676;139.586;2023-06-26T08:07:07;14;14;
62846;PMS5003;49477;35.676;139.586;2023-06-26T08:09:37;16;16;
62846;PMS5003;49477;35.676;139.586;2023-06-26T08:12:06;20;20;
62846;PMS5003;49477;35.676;139.586;2023-06-26T08:14:35;16;16;
62846;PMS5003;49477;35.676;139.586;2023-06-26T08:17:04;20;19;
62846;PMS5003;49477;35.676;139.586;2023-06-26T08:19:34;14;14;
62846;PMS5003;49477;35.676;139.586;2023-06-26T08:22:03;20;20;
62846;PMS5003;49477;35.676;139.586;2023-06-26T08:24:32;16;16;
62846;PMS5003;49477;35.676;139.586;2023-06-26T08:27:01;20;19;
62846;PMS5003;49477;35.676;139.586;2023-06-26T08:29:30;19;18;
62846;PMS5003;49477;35.676;139.586;2023-06-26T08:31:59;18;16;
62846;PMS5003;49477;35.676;139.586;2023-06-26T08:34:28;21;19;
62846;PMS5003;49477;35.676;139.586;2023-06-26T08:36:57;20;18;
62846;PMS5003;49477;35.676;139.586;2023-06-26T08:39:27;18;18;
62846;PMS5003;49477;35.676;139.586;2023-06-26T08:41:56;20;19;
62846;PMS5003;49477;35.676;139.586;2023-06-26T08:44:26;19;19;
62846;PMS5003;49477;35.676;139.586;2023-06-26T08:46:55;23;22;
62846;PMS5003;49477;35.676;139.586;2023-06-26T08:49:28;17;17;
62846;PMS5003;49477;35.676;139.586;2023-06-26T08:52:04;19;17;
62846;PMS5003;49477;35.676;139.586;2023-06-26T08:54:43;17;17;
62846;PMS5003;49477;35.676;139.586;2023-06-26T08:57:18;22;18;
62846;PMS5003;49477;35.676;139.586;2023-06-26T08:59:48;20;20;
62846;PMS5003;49477;35.676;139.586;2023-06-26T09:02:17;18;17;
62846;PMS5003;49477;35.676;139.586;2023-06-26T09:04:47;18;16;
62846;PMS5003;49477;35.676;139.586;2023-06-26T09:07:17;22;21;
62846;PMS5003;49477;35.676;139.586;2023-06-26T09:09:46;23;18;
62846;PMS5003;49477;35.676;139.586;2023-06-26T09:12:16;23;23;
62846;PMS5003;49477;35.676;139.586;2023-06-26T09:14:47;24;20;
62846;PMS5003;49477;35.676;139.586;2023-06-26T09:17:17;22;21;
62846;PMS5003;49477;35.676;139.586;2023-06-26T09:19:53;19;18;
62846;PMS5003;49477;35.676;139.586;2023-06-26T09:22:24;21;20;
62846;PMS5003;49477;35.676;139.586;2023-06-26T09:24:54;23;20;
62846;PMS5003;49477;35.676;139.586;2023-06-26T09:27:24;20;19;
62846;PMS5003;49477;35.676;139.586;2023-06-26T09:29:53;23;20;
62846;PMS5003;49477;35.676;139.586;2023-06-26T09:32:24;20;18;
62846;PMS5003;49477;35.676;139.586;2023-06-26T09:34:53;25;21;
62846;PMS5003;49477;35.676;139.586;2023-06-26T09:37:23;21;20;
62846;PMS5003;49477;35.676;139.586;2023-06-26T09:39:53;19;17;
62846;PMS5003;49477;35.676;139.586;2023-06-26T09:42:22;28;22;
62846;PMS5003;49477;35.676;139.586;2023-06-26T09:44:52;21;21;
62846;PMS5003;49477;35.676;139.586;2023-06-26T09:47:21;20;20;
62846;PMS5003;49477;35.676;139.586;2023-06-26T09:49:51;21;20;
62846;PMS5003;49477;35.676;139.586;2023-06-26T09:52:20;21;20;
62846;PMS5003;49477;35.676;139.586;2023-06-26T09:55:07;21;20;
62846;PMS5003;49477;35.676;139.586;2023-06-26T09:57:38;22;18;
62846;PMS5003;49477;35.676;139.586;2023-06-26T10:00:08;23;23;
62846;PMS5003;49477;35.676;139.586;2023-06-26T10:02:39;21;18;
62846;PMS5003;49477;35.676;139.586;2023-06-26T10:05:08;20;19;
62846;PMS5003;49477;35.676;139.586;2023-06-26T10:07:38;23;22;
62846;PMS5003;49477;35.676;139.586;2023-06-26T10:10:08;23;20;
62846;PMS5003;49477;35.676;139.586;2023-06-26T10:12:39;22;21;
62846;PMS5003;49477;35.676;139.586;2023-06-26T10:15:10;26;23;
62846;PMS5003;49477;35.676;139.586;2023-06-26T10:17:46;21;18;
62846;PMS5003;49477;35.676;139.586;2023-06-26T10:20:16;20;20;
62846;PMS5003;49477;35.676;139.586;2023-06-26T10:22:47;21;21;
62846;PMS5003;49477;35.676;139.586;2023-06-26T10:25:18;24;20;
62846;PMS5003;49477;35.676;139.586;2023-06-26T10:27:50;20;19;
62846;PMS5003;49477;35.676;139.586;2023-06-26T10:30:25;23;21;
62846;PMS5003;49477;35.676;139.586;2023-06-26T10:32:59;21;17;
62846;PMS5003;49477;35.676;139.586;2023-06-26T10:35:29;22;20;
62846;PMS5003;49477;35.676;139.586;2023-06-26T10:38:00;23;20;
62846;PMS5003;49477;35.676;139.586;2023-06-26T10:40:39;24;20;
62846;PMS5003;49477;35.676;139.586;2023-06-26T10:43:11;21;19;
62846;PMS5003;49477;35.676;139.586;2023-06-26T10:45:44;21;21;
62846;PMS5003;49477;35.676;139.586;2023-06-26T10:48:15;17;16;
62846;PMS5003;49477;35.676;139.586;2023-06-26T10:50:47;20;16;
62846;PMS5003;49477;35.676;139.586;2023-06-26T10:53:22;24;23;
62846;PMS5003;49477;35.676;139.586;2023-06-26T10:55:55;18;17;
62846;PMS5003;49477;35.676;139.586;2023-06-26T10:58:28;21;19;
62846;PMS5003;49477;35.676;139.586;2023-06-26T11:01:36;22;19;
62846;PMS5003;49477;35.676;139.586;2023-06-26T11:04:15;19;18;
62846;PMS5003;49477;35.676;139.586;2023-06-26T11:07:14;16;16;
62846;PMS5003;49477;35.676;139.586;2023-06-26T11:10:02;19;18;
62846;PMS5003;49477;35.676;139.586;2023-06-26T11:12:37;21;21;
62846;PMS5003;49477;35.676;139.586;2023-06-26T11:15:08;20;18;
62846;PMS5003;49477;35.676;139.586;2023-06-26T11:17:38;20;20;
62846;PMS5003;49477;35.676;139.586;2023-06-26T11:20:11;22;21;
62846;PMS5003;49477;35.676;139.586;2023-06-26T11:22:42;20;19;
62846;PMS5003;49477;35.676;139.586;2023-06-26T11:25:12;20;20;
62846;PMS5003;49477;35.676;139.586;2023-06-26T11:27:42;21;18;
62846;PMS5003;49477;35.676;139.586;2023-06-26T11:30:24;22;22;
62846;PMS5003;49477;35.676;139.586;2023-06-26T11:33:01;18;18;
62846;PMS5003;49477;35.676;139.586;2023-06-26T11:35:32;21;20;
62846;PMS5003;49477;35.676;139.586;2023-06-26T11:38:02;20;18;
62846;PMS5003;49477;35.676;139.586;2023-06-26T11:40:33;20;18;
62846;PMS5003;49477;35.676;139.586;2023-06-26T11:43:03;19;19;
62846;PMS5003;49477;35.676;139.586;2023-06-26T11:45:33;18;18;
62846;PMS5003;49477;35.676;139.586;2023-06-26T11:48:04;21;21;
62846;PMS5003;49477;35.676;139.586;2023-06-26T11:50:33;22;20;
62846;PMS5003;49477;35.676;139.586;2023-06-26T11:53:06;23;19;
62846;PMS5003;49477;35.676;139.586;2023-06-26T11:55:41;18;18;
62846;PMS5003;49477;35.676;139.586;2023-06-26T11:58:11;17;17;
62846;PMS5003;49477;35.676;139.586;2023-06-26T12:00:41;20;20;
62846;PMS5003;49477;35.676;139.586;2023-06-26T12:03:11;23;19;
62846;PMS5003;49477;35.676;139.586;2023-06-26T12:05:41;18;18;
62846;PMS5003;49477;35.676;139.586;2023-06-26T12:08:10;22;19;
62846;PMS5003;49477;35.676;139.586;2023-06-26T12:10:40;19;19;
62846;PMS5003;49477;35.676;139.586;2023-06-26T12:13:10;23;22;
62846;PMS5003;49477;35.676;139.586;2023-06-26T12:15:40;18;18;
62846;PMS5003;49477;35.676;139.586;2023-06-26T12:18:09;24;18;
62846;PMS5003;49477;35.676;139.586;2023-06-26T12:20:40;17;17;
62846;PMS5003;49477;35.676;139.586;2023-06-26T12:23:13;20;19;
62846;PMS5003;49477;35.676;139.586;2023-06-26T12:25:44;19;18;
62846;PMS5003;49477;35.676;139.586;2023-06-26T12:28:18;23;21;
62846;PMS5003;49477;35.676;139.586;2023-06-26T12:30:49;21;19;
62846;PMS5003;49477;35.676;139.586;2023-06-26T12:33:48;22;20;
62846;PMS5003;49477;35.676;139.586;2023-06-26T12:36:19;21;18;
62846;PMS5003;49477;35.676;139.586;2023-06-26T12:38:48;22;22;
62846;PMS5003;49477;35.676;139.586;2023-06-26T12:41:24;23;22;
62846;PMS5003;49477;35.676;139.586;2023-06-26T12:43:56;20;18;
62846;PMS5003;49477;35.676;139.586;2023-06-26T12:46:33;23;20;
62846;PMS5003;49477;35.676;139.586;2023-06-26T12:49:03;22;21;
62846;PMS5003;49477;35.676;139.586;2023-06-26T12:51:37;26;23;
62846;PMS5003;49477;35.676;139.586;2023-06-26T12:54:07;21;20;
62846;PMS5003;49477;35.676;139.586;2023-06-26T12:56:37;25;22;
62846;PMS5003;49477;35.676;139.586;2023-06-26T12:59:06;26;23;
62846;PMS5003;49477;35.676;139.586;2023-06-26T13:01:35;21;21;
62846;PMS5003;49477;35.676;139.586;2023-06-26T13:04:05;21;20;
62846;PMS5003;49477;35.676;139.586;2023-06-26T13:06:36;21;20;
62846;PMS5003;49477;35.676;139.586;2023-06-26T13:09:06;23;23;
62846;PMS5003;49477;35.676;139.586;2023-06-26T13:11:35;24;22;
62846;PMS5003;49477;35.676;139.586;2023-06-26T13:14:05;24;23;
62846;PMS5003;49477;35.676;139.586;2023-06-26T13:16:36;23;22;
62846;PMS5003;49477;35.676;139.586;2023-06-26T13:19:06;20;20;
62846;PMS5003;49477;35.676;139.586;2023-06-26T13:21:35;20;20;
62846;PMS5003;49477;35.676;139.586;2023-06-26T13:24:05;24;24;
62846;PMS5003;49477;35.676;139.586;2023-06-26T13:26:34;28;24;
62846;PMS5003;49477;35.676;139.586;2023-06-26T13:29:03;22;21;
62846;PMS5003;49477;35.676;139.586;2023-06-26T13:31:33;25;23;
62846;PMS5003;49477;35.676;139.586;2023-06-26T13:34:03;23;22;
62846;PMS5003;49477;35.676;139.586;2023-06-26T13:36:32;23;22;
62846;PMS5003;49477;35.676;139.586;2023-06-26T13:39:02;24;23;
62846;PMS5003;49477;35.676;139.586;2023-06-26T13:41:31;27;25;
62846;PMS5003;49477;35.676;139.586;2023-06-26T13:44:01;24;24;
62846;PMS5003;49477;35.676;139.586;2023-06-26T13:46:31;26;22;
62846;PMS5003;49477;35.676;139.586;2023-06-26T13:49:00;26;25;
62846;PMS5003;49477;35.676;139.586;2023-06-26T13:51:29;30;25;
62846;PMS5003;49477;35.676;139.586;2023-06-26T13:53:58;26;25;
62846;PMS5003;49477;35.676;139.586;2023-06-26T13:56:28;29;25;
62846;PMS5003;49477;35.676;139.586;2023-06-26T13:58:56;25;23;
62846;PMS5003;49477;35.676;139.586;2023-06-26T14:01:26;25;23;
62846;PMS5003;49477;35.676;139.586;2023-06-26T14:03:55;26;25;
62846;PMS5003;49477;35.676;139.586;2023-06-26T14:06:25;27;25;
62846;PMS5003;49477;35.676;139.586;2023-06-26T14:08:54;27;25;
62846;PMS5003;49477;35.676;139.586;2023-06-26T14:11:24;24;23;
62846;PMS5003;49477;35.676;139.586;2023-06-26T14:13:53;26;24;
62846;PMS5003;49477;35.676;139.586;2023-06-26T14:16:22;26;25;
62846;PMS5003;49477;35.676;139.586;2023-06-26T14:18:51;31;25;
62846;PMS5003;49477;35.676;139.586;2023-06-26T14:21:23;25;25;
62846;PMS5003;49477;35.676;139.586;2023-06-26T14:23:53;25;22;
62846;PMS5003;49477;35.676;139.586;2023-06-26T14:26:23;23;23;
62846;PMS5003;49477;35.676;139.586;2023-06-26T14:29:02;26;25;
62846;PMS5003;49477;35.676;139.586;2023-06-26T14:31:32;22;22;
62846;PMS5003;49477;35.676;139.586;2023-06-26T14:34:01;26;24;
62846;PMS5003;49477;35.676;139.586;2023-06-26T14:36:30;24;20;
62846;PMS5003;49477;35.676;139.586;2023-06-26T14:39:04;23;23;
62846;PMS5003;49477;35.676;139.586;2023-06-26T14:41:34;23;22;
62846;PMS5003;49477;35.676;139.586;2023-06-26T14:44:04;19;19;
62846;PMS5003;49477;35.676;139.586;2023-06-26T14:46:33;24;24;
62846;PMS5003;49477;35.676;139.586;2023-06-26T14:49:02;26;20;
62846;PMS5003;49477;35.676;139.586;2023-06-26T14:51:31;24;23;
62846;PMS5003;49477;35.676;139.586;2023-06-26T14:54:01;25;24;
62846;PMS5003;49477;35.676;139.586;2023-06-26T14:56:31;25;23;
62846;PMS5003;49477;35.676;139.586;2023-06-26T14:59:00;25;24;
62846;PMS5003;49477;35.676;139.586;2023-06-26T15:01:31;25;24;
62846;PMS5003;49477;35.676;139.586;2023-06-26T15:04:00;26;24;
62846;PMS5003;49477;35.676;139.586;2023-06-26T15:06:29;21;19;
62846;PMS5003;49477;35.676;139.586;2023-06-26T15:09:04;26;23;
62846;PMS5003;49477;35.676;139.586;2023-06-26T15:11:33;23;21;
62846;PMS5003;49477;35.676;139.586;2023-06-26T15:14:03;25;24;
62846;PMS5003;49477;35.676;139.586;2023-06-26T15:16:32;26;25;
62846;PMS5003;49477;35.676;139.586;2023-06-26T15:19:02;27;27;
62846;PMS5003;49477;35.676;139.586;2023-06-26T15:21:31;24;23;
62846;PMS5003;49477;35.676;139.586;2023-06-26T15:24:00;28;25;
62846;PMS5003;49477;35.676;139.586;2023-06-26T15:26:30;23;22;
62846;PMS5003;49477;35.676;139.586;2023-06-26T15:28:59;21;21;
62846;PMS5003;49477;35.676;139.586;2023-06-26T15:31:29;25;21;
62846;PMS5003;49477;35.676;139.586;2023-06-26T15:33:58;25;23;
62846;PMS5003;49477;35.676;139.586;2023-06-26T15:36:27;21;21;
62846;PMS5003;49477;35.676;139.586;2023-06-26T15:38:56;27;25;
62846;PMS5003;49477;35.676;139.586;2023-06-26T15:41:26;24;24;
62846;PMS5003;49477;35.676;139.586;2023-06-26T15:43:55;21;21;
62846;PMS5003;49477;35.676;139.586;2023-06-26T15:46:24;27;25;
62846;PMS5003;49477;35.676;139.586;2023-06-26T15:48:53;29;22;
62846;PMS5003;49477;35.676;139.586;2023-06-26T15:51:22;26;24;
62846;PMS5003;49477;35.676;139.586;2023-06-26T15:53:51;24;21;
62846;PMS5003;49477;35.676;139.586;2023-06-26T15:56:20;23;21;
62846;PMS5003;49477;35.676;139.586;2023-06-26T15:58:49;27;26;
62846;PMS5003;49477;35.676;139.586;2023-06-26T16:01:19;26;24;
62846;PMS5003;49477;35.676;139.586;2023-06-26T16:03:48;33;26;
62846;PMS5003;49477;35.676;139.586;2023-06-26T16:06:18;28;27;
62846;PMS5003;49477;35.676;139.586;2023-06-26T16:08:47;29;25;